sensor_id;sensor_type;location;lat;lon;timestamp;temperature;humidity
9425;DHT22;17139;52.140;11.636;2022-11-20T00:01:30;-1.20;63.80
9425;DHT22;17139;52.140;11.636;2022-11-20T00:03:58;-1.20;63.90
9425;DHT22;17139;52.140;11.636;2022-11-20T00:06:27;-1.20;63.90
9425;DHT22;17139;52.140;11.636;2022-11-20T00:08:57;-1.20;63.90
9425;DHT22;17139;52.140;11.636;2022-11-20T00:11:27;-1.20;64.00
9425;DHT22;17139;52.140;11.636;2022-11-20T00:13:56;-1.20;64.00
9425;DHT22;17139;52.140;11.636;2022-11-20T00:16:25;-1.20;64.00
9425;DHT22;17139;52.140;11.636;2022-11-20T00:18:53;-0.70;62.50
9425;DHT22;17139;52.140;11.636;2022-11-20T00:21:21;-0.70;62.40
9425;DHT22;17139;52.140;11.636;2022-11-20T00:23:50;-0.60;62.80
9425;DHT22;17139;52.140;11.636;2022-11-20T00:26:19;-0.70;62.20
9425;DHT22;17139;52.140;11.636;2022-11-20T00:28:50;-0.90;62.80
9425;DHT22;17139;52.140;11.636;2022-11-20T00:31:17;-1.00;63.30
9425;DHT22;17139;52.140;11.636;2022-11-20T00:33:45;-1.10;63.50
9425;DHT22;17139;52.140;11.636;2022-11-20T00:36:14;-1.20;63.80
9425;DHT22;17139;52.140;11.636;2022-11-20T00:38:42;-1.30;63.90
9425;DHT22;17139;52.140;11.636;2022-11-20T00:41:10;-1.40;64.10
9425;DHT22;17139;52.140;11.636;2022-11-20T00:43:39;-1.40;64.30
9425;DHT22;17139;52.140;11.636;2022-11-20T00:46:08;-1.50;64.30
9425;DHT22;17139;52.140;11.636;2022-11-20T00:48:36;-1.50;64.40
9425;DHT22;17139;52.140;11.636;2022-11-20T00:51:03;-1.60;64.30
9425;DHT22;17139;52.140;11.636;2022-11-20T00:53:31;-1.60;64.40
9425;DHT22;17139;52.140;11.636;2022-11-20T00:56:00;-1.60;64.50
9425;DHT22;17139;52.140;11.636;2022-11-20T00:58:30;-1.60;64.40
9425;DHT22;17139;52.140;11.636;2022-11-20T01:01:02;-1.60;64.40
9425;DHT22;17139;52.140;11.636;2022-11-20T01:03:31;-1.00;62.90
9425;DHT22;17139;52.140;11.636;2022-11-20T01:06:02;-1.10;62.80
9425;DHT22;17139;52.140;11.636;2022-11-20T01:08:31;-1.30;63.40
9425;DHT22;17139;52.140;11.636;2022-11-20T01:11:00;-1.40;64.00
9425;DHT22;17139;52.140;11.636;2022-11-20T01:13:29;-1.50;64.20
9425;DHT22;17139;52.140;11.636;2022-11-20T01:16:09;-1.50;64.50
9425;DHT22;17139;52.140;11.636;2022-11-20T01:18:39;-1.60;64.50
9425;DHT22;17139;52.140;11.636;2022-11-20T01:21:08;-1.60;64.50
9425;DHT22;17139;52.140;11.636;2022-11-20T01:23:37;-1.60;64.60
9425;DHT22;17139;52.140;11.636;2022-11-20T01:26:06;-1.70;64.60
9425;DHT22;17139;52.140;11.636;2022-11-20T01:28:34;-1.70;64.60
9425;DHT22;17139;52.140;11.636;2022-11-20T01:31:12;-1.70;64.70
9425;DHT22;17139;52.140;11.636;2022-11-20T01:33:39;-1.70;64.70
9425;DHT22;17139;52.140;11.636;2022-11-20T01:36:08;-1.20;63.60
9425;DHT22;17139;52.140;11.636;2022-11-20T01:38:36;-1.30;63.10
9425;DHT22;17139;52.140;11.636;2022-11-20T01:41:06;-1.30;63.70
9425;DHT22;17139;52.140;11.636;2022-11-20T01:43:34;-1.10;64.20
9425;DHT22;17139;52.140;11.636;2022-11-20T01:46:16;-1.10;63.20
9425;DHT22;17139;52.140;11.636;2022-11-20T01:48:48;-1.20;63.50
9425;DHT22;17139;52.140;11.636;2022-11-20T01:51:23;-1.30;63.80
9425;DHT22;17139;52.140;11.636;2022-11-20T01:53:53;-1.30;63.90
9425;DHT22;17139;52.140;11.636;2022-11-20T01:56:21;-1.30;64.00
9425;DHT22;17139;52.140;11.636;2022-11-20T01:58:52;-1.40;64.00
9425;DHT22;17139;52.140;11.636;2022-11-20T02:01:22;-1.30;64.10
9425;DHT22;17139;52.140;11.636;2022-11-20T02:03:50;-1.40;64.20
9425;DHT22;17139;52.140;11.636;2022-11-20T02:06:21;-1.30;64.10
9425;DHT22;17139;52.140;11.636;2022-11-20T02:08:51;-1.30;64.10
9425;DHT22;17139;52.140;11.636;2022-11-20T02:11:19;-1.30;64.10
9425;DHT22;17139;52.140;11.636;2022-11-20T02:13:46;-1.20;64.20
9425;DHT22;17139;52.140;11.636;2022-11-20T02:16:15;-1.10;63.90
9425;DHT22;17139;52.140;11.636;2022-11-20T02:18:45;-1.00;63.60
9425;DHT22;17139;52.140;11.636;2022-11-20T02:21:31;-0.50;62.60
9425;DHT22;17139;52.140;11.636;2022-11-20T02:24:19;-0.60;62.50
9425;DHT22;17139;52.140;11.636;2022-11-20T02:26:51;-0.80;63.00
9425;DHT22;17139;52.140;11.636;2022-11-20T02:29:24;-0.90;63.40
9425;DHT22;17139;52.140;11.636;2022-11-20T02:31:54;-0.90;63.80
9425;DHT22;17139;52.140;11.636;2022-11-20T02:34:22;-0.90;64.00
9425;DHT22;17139;52.140;11.636;2022-11-20T02:36:49;-0.90;64.10
9425;DHT22;17139;52.140;11.636;2022-11-20T02:39:21;-1.00;64.00
9425;DHT22;17139;52.140;11.636;2022-11-20T02:41:53;-0.90;64.10
9425;DHT22;17139;52.140;11.636;2022-11-20T02:44:20;-0.90;64.10
9425;DHT22;17139;52.140;11.636;2022-11-20T02:46:47;-1.00;64.00
9425;DHT22;17139;52.140;11.636;2022-11-20T02:49:14;-1.00;64.10
9425;DHT22;17139;52.140;11.636;2022-11-20T02:51:42;-0.80;63.80
9425;DHT22;17139;52.140;11.636;2022-11-20T02:54:09;-0.80;63.50
9425;DHT22;17139;52.140;11.636;2022-11-20T02:56:39;-0.80;63.80
9425;DHT22;17139;52.140;11.636;2022-11-20T02:59:06;-0.90;63.80
9425;DHT22;17139;52.140;11.636;2022-11-20T03:01:33;-0.90;63.90
9425;DHT22;17139;52.140;11.636;2022-11-20T03:04:00;-0.90;64.00
9425;DHT22;17139;52.140;11.636;2022-11-20T03:06:27;-0.90;64.10
9425;DHT22;17139;52.140;11.636;2022-11-20T03:08:54;-0.90;64.10
9425;DHT22;17139;52.140;11.636;2022-11-20T03:11:22;-0.90;64.10
9425;DHT22;17139;52.140;11.636;2022-11-20T03:13:50;-0.90;64.10
9425;DHT22;17139;52.140;11.636;2022-11-20T03:16:19;-0.90;64.20
9425;DHT22;17139;52.140;11.636;2022-11-20T03:18:46;-0.90;64.20
9425;DHT22;17139;52.140;11.636;2022-11-20T03:21:14;-0.90;64.20
9425;DHT22;17139;52.140;11.636;2022-11-20T03:23:42;-1.00;64.20
9425;DHT22;17139;52.140;11.636;2022-11-20T03:26:14;-1.00;64.20
9425;DHT22;17139;52.140;11.636;2022-11-20T03:28:48;-1.00;64.30
9425;DHT22;17139;52.140;11.636;2022-11-20T03:31:18;-1.00;64.40
9425;DHT22;17139;52.140;11.636;2022-11-20T03:33:45;-1.10;64.40
9425;DHT22;17139;52.140;11.636;2022-11-20T03:36:15;-1.00;64.40
9425;DHT22;17139;52.140;11.636;2022-11-20T03:38:42;-1.00;64.50
9425;DHT22;17139;52.140;11.636;2022-11-20T03:41:12;-1.10;64.40
9425;DHT22;17139;52.140;11.636;2022-11-20T03:43:39;-1.10;64.40
9425;DHT22;17139;52.140;11.636;2022-11-20T03:46:07;-1.10;64.30
9425;DHT22;17139;52.140;11.636;2022-11-20T03:48:36;-1.10;64.30
9425;DHT22;17139;52.140;11.636;2022-11-20T03:51:10;-1.20;64.20
9425;DHT22;17139;52.140;11.636;2022-11-20T03:53:37;-1.20;64.30
9425;DHT22;17139;52.140;11.636;2022-11-20T03:56:05;-1.30;64.30
9425;DHT22;17139;52.140;11.636;2022-11-20T03:58:33;-1.30;64.50
9425;DHT22;17139;52.140;11.636;2022-11-20T04:01:05;-1.40;64.40
9425;DHT22;17139;52.140;11.636;2022-11-20T04:03:33;-1.40;64.60
9425;DHT22;17139;52.140;11.636;2022-11-20T04:06:04;-1.40;64.60
9425;DHT22;17139;52.140;11.636;2022-11-20T04:08:31;-1.40;64.70
9425;DHT22;17139;52.140;11.636;2022-11-20T04:11:09;-1.40;64.70
9425;DHT22;17139;52.140;11.636;2022-11-20T04:13:36;-1.40;64.70
9425;DHT22;17139;52.140;11.636;2022-11-20T04:16:04;-1.40;64.60
9425;DHT22;17139;52.140;11.636;2022-11-20T04:18:31;-1.50;64.50
9425;DHT22;17139;52.140;11.636;2022-11-20T04:20:59;-0.90;63.30
9425;DHT22;17139;52.140;11.636;2022-11-20T04:23:28;-0.90;63.00
9425;DHT22;17139;52.140;11.636;2022-11-20T04:26:01;-1.00;63.30
9425;DHT22;17139;52.140;11.636;2022-11-20T04:28:28;-1.10;63.70
9425;DHT22;17139;52.140;11.636;2022-11-20T04:31:02;-1.20;63.90
9425;DHT22;17139;52.140;11.636;2022-11-20T04:33:29;-1.20;64.00
9425;DHT22;17139;52.140;11.636;2022-11-20T04:36:00;-1.20;64.20
9425;DHT22;17139;52.140;11.636;2022-11-20T04:38:29;-1.20;64.30
9425;DHT22;17139;52.140;11.636;2022-11-20T04:40:57;-1.30;64.20
9425;DHT22;17139;52.140;11.636;2022-11-20T04:43:25;-1.20;64.30
9425;DHT22;17139;52.140;11.636;2022-11-20T04:45:52;-1.30;64.30
9425;DHT22;17139;52.140;11.636;2022-11-20T04:48:19;-1.20;64.40
9425;DHT22;17139;52.140;11.636;2022-11-20T04:50:46;-1.20;64.40
9425;DHT22;17139;52.140;11.636;2022-11-20T04:53:14;-1.30;64.20
9425;DHT22;17139;52.140;11.636;2022-11-20T04:55:42;-1.10;64.10
9425;DHT22;17139;52.140;11.636;2022-11-20T04:58:09;-1.10;64.20
9425;DHT22;17139;52.140;11.636;2022-11-20T05:00:37;-1.20;63.90
9425;DHT22;17139;52.140;11.636;2022-11-20T05:03:04;-1.20;64.00
9425;DHT22;17139;52.140;11.636;2022-11-20T05:05:31;-1.30;64.10
9425;DHT22;17139;52.140;11.636;2022-11-20T05:07:58;-1.30;64.30
9425;DHT22;17139;52.140;11.636;2022-11-20T05:10:26;-1.30;64.30
9425;DHT22;17139;52.140;11.636;2022-11-20T05:12:54;-1.30;64.40
9425;DHT22;17139;52.140;11.636;2022-11-20T05:15:21;-1.20;64.40
9425;DHT22;17139;52.140;11.636;2022-11-20T05:17:48;-1.20;64.30
9425;DHT22;17139;52.140;11.636;2022-11-20T05:20:15;-1.20;64.20
9425;DHT22;17139;52.140;11.636;2022-11-20T05:22:43;-1.20;64.30
9425;DHT22;17139;52.140;11.636;2022-11-20T05:25:11;-1.20;64.30
9425;DHT22;17139;52.140;11.636;2022-11-20T05:27:38;-1.30;64.30
9425;DHT22;17139;52.140;11.636;2022-11-20T05:30:08;-1.40;64.50
9425;DHT22;17139;52.140;11.636;2022-11-20T05:32:36;-1.30;64.50
9425;DHT22;17139;52.140;11.636;2022-11-20T05:35:03;-1.40;64.50
9425;DHT22;17139;52.140;11.636;2022-11-20T05:37:30;-1.30;64.20
9425;DHT22;17139;52.140;11.636;2022-11-20T05:39:57;-1.20;63.90
9425;DHT22;17139;52.140;11.636;2022-11-20T05:42:24;-1.30;64.10
9425;DHT22;17139;52.140;11.636;2022-11-20T05:44:58;-1.40;64.20
9425;DHT22;17139;52.140;11.636;2022-11-20T05:47:28;-0.80;62.50
9425;DHT22;17139;52.140;11.636;2022-11-20T05:49:55;-0.90;62.30
9425;DHT22;17139;52.140;11.636;2022-11-20T05:52:22;-1.10;63.00
9425;DHT22;17139;52.140;11.636;2022-11-20T05:54:49;-1.30;63.40
9425;DHT22;17139;52.140;11.636;2022-11-20T05:57:16;-1.40;63.70
9425;DHT22;17139;52.140;11.636;2022-11-20T05:59:43;-1.50;64.00
9425;DHT22;17139;52.140;11.636;2022-11-20T06:02:10;-1.60;64.20
9425;DHT22;17139;52.140;11.636;2022-11-20T06:04:39;-1.70;64.20
9425;DHT22;17139;52.140;11.636;2022-11-20T06:07:06;-1.70;64.40
9425;DHT22;17139;52.140;11.636;2022-11-20T06:09:33;-1.80;64.50
9425;DHT22;17139;52.140;11.636;2022-11-20T06:12:00;-1.90;64.70
9425;DHT22;17139;52.140;11.636;2022-11-20T06:14:28;-2.00;64.80
9425;DHT22;17139;52.140;11.636;2022-11-20T06:16:55;-2.10;65.00
9425;DHT22;17139;52.140;11.636;2022-11-20T06:19:22;-2.10;65.10
9425;DHT22;17139;52.140;11.636;2022-11-20T06:21:50;-2.20;65.20
9425;DHT22;17139;52.140;11.636;2022-11-20T06:24:18;-2.20;65.20
9425;DHT22;17139;52.140;11.636;2022-11-20T06:26:45;-1.60;63.50
9425;DHT22;17139;52.140;11.636;2022-11-20T06:29:12;-1.70;63.00
9425;DHT22;17139;52.140;11.636;2022-11-20T06:31:39;-1.90;63.60
9425;DHT22;17139;52.140;11.636;2022-11-20T06:34:08;-1.40;62.40
9425;DHT22;17139;52.140;11.636;2022-11-20T06:36:35;-1.60;62.30
9425;DHT22;17139;52.140;11.636;2022-11-20T06:39:04;-1.90;63.00
9425;DHT22;17139;52.140;11.636;2022-11-20T06:41:31;-2.10;63.60
9425;DHT22;17139;52.140;11.636;2022-11-20T06:43:58;-2.20;64.10
9425;DHT22;17139;52.140;11.636;2022-11-20T06:46:25;-2.30;64.40
9425;DHT22;17139;52.140;11.636;2022-11-20T06:48:52;-2.40;64.40
9425;DHT22;17139;52.140;11.636;2022-11-20T06:51:20;-2.40;64.60
9425;DHT22;17139;52.140;11.636;2022-11-20T06:53:47;-2.50;64.60
9425;DHT22;17139;52.140;11.636;2022-11-20T06:56:15;-2.50;64.70
9425;DHT22;17139;52.140;11.636;2022-11-20T06:58:43;-2.50;64.80
9425;DHT22;17139;52.140;11.636;2022-11-20T07:01:12;-2.60;64.70
9425;DHT22;17139;52.140;11.636;2022-11-20T07:03:39;-2.60;64.70
9425;DHT22;17139;52.140;11.636;2022-11-20T07:06:07;-2.60;64.70
9425;DHT22;17139;52.140;11.636;2022-11-20T07:08:34;-2.50;64.80
9425;DHT22;17139;52.140;11.636;2022-11-20T07:11:03;-2.50;64.70
9425;DHT22;17139;52.140;11.636;2022-11-20T07:13:32;-2.50;64.60
9425;DHT22;17139;52.140;11.636;2022-11-20T07:16:00;-2.50;64.50
9425;DHT22;17139;52.140;11.636;2022-11-20T07:18:27;-2.00;63.70
9425;DHT22;17139;52.140;11.636;2022-11-20T07:20:54;-2.10;63.10
9425;DHT22;17139;52.140;11.636;2022-11-20T07:23:21;-2.20;63.50
9425;DHT22;17139;52.140;11.636;2022-11-20T07:25:48;-2.20;64.00
9425;DHT22;17139;52.140;11.636;2022-11-20T07:28:16;-2.20;64.10
9425;DHT22;17139;52.140;11.636;2022-11-20T07:30:49;-2.10;64.20
9425;DHT22;17139;52.140;11.636;2022-11-20T07:33:16;-2.00;64.10
9425;DHT22;17139;52.140;11.636;2022-11-20T07:35:43;-1.90;64.00
9425;DHT22;17139;52.140;11.636;2022-11-20T07:38:10;-1.80;64.00
9425;DHT22;17139;52.140;11.636;2022-11-20T07:40:37;-1.70;63.90
9425;DHT22;17139;52.140;11.636;2022-11-20T07:43:05;-1.60;63.40
9425;DHT22;17139;52.140;11.636;2022-11-20T07:45:32;-1.30;62.80
9425;DHT22;17139;52.140;11.636;2022-11-20T07:48:00;-1.30;62.70
9425;DHT22;17139;52.140;11.636;2022-11-20T07:50:27;-0.70;61.10
9425;DHT22;17139;52.140;11.636;2022-11-20T07:53:01;-0.80;61.20
9425;DHT22;17139;52.140;11.636;2022-11-20T07:55:28;-0.80;62.00
9425;DHT22;17139;52.140;11.636;2022-11-20T07:57:55;-0.90;62.40
9425;DHT22;17139;52.140;11.636;2022-11-20T08:00:22;-1.00;62.60
9425;DHT22;17139;52.140;11.636;2022-11-20T08:02:50;-0.30;60.80
9425;DHT22;17139;52.140;11.636;2022-11-20T08:05:18;-0.40;60.90
9425;DHT22;17139;52.140;11.636;2022-11-20T08:07:45;-0.50;61.30
9425;DHT22;17139;52.140;11.636;2022-11-20T08:10:14;-0.70;62.00
9425;DHT22;17139;52.140;11.636;2022-11-20T08:12:45;-0.20;60.90
9425;DHT22;17139;52.140;11.636;2022-11-20T08:15:30;-0.30;61.00
9425;DHT22;17139;52.140;11.636;2022-11-20T08:18:01;-0.40;61.80
9425;DHT22;17139;52.140;11.636;2022-11-20T08:20:30;-0.50;62.20
9425;DHT22;17139;52.140;11.636;2022-11-20T08:22:58;-0.20;61.20
9425;DHT22;17139;52.140;11.636;2022-11-20T08:25:26;-0.20;61.30
9425;DHT22;17139;52.140;11.636;2022-11-20T08:27:53;0.40;59.70
9425;DHT22;17139;52.140;11.636;2022-11-20T08:30:20;0.20;60.00
9425;DHT22;17139;52.140;11.636;2022-11-20T08:32:47;0.00;60.90
9425;DHT22;17139;52.140;11.636;2022-11-20T08:35:15;-0.10;61.60
9425;DHT22;17139;52.140;11.636;2022-11-20T08:37:46;-0.10;61.70
9425;DHT22;17139;52.140;11.636;2022-11-20T08:40:13;-0.20;62.00
9425;DHT22;17139;52.140;11.636;2022-11-20T08:42:46;-0.20;62.30
9425;DHT22;17139;52.140;11.636;2022-11-20T08:45:13;0.10;61.30
9425;DHT22;17139;52.140;11.636;2022-11-20T08:47:40;0.20;60.70
9425;DHT22;17139;52.140;11.636;2022-11-20T08:50:08;0.20;61.10
9425;DHT22;17139;52.140;11.636;2022-11-20T08:52:35;0.00;61.50
9425;DHT22;17139;52.140;11.636;2022-11-20T08:55:05;-0.10;61.70
9425;DHT22;17139;52.140;11.636;2022-11-20T08:57:33;-0.10;62.00
9425;DHT22;17139;52.140;11.636;2022-11-20T09:00:00;-0.20;62.20
9425;DHT22;17139;52.140;11.636;2022-11-20T09:02:27;-0.20;62.40
9425;DHT22;17139;52.140;11.636;2022-11-20T09:04:54;-0.20;62.40
9425;DHT22;17139;52.140;11.636;2022-11-20T09:07:21;-0.20;62.50
9425;DHT22;17139;52.140;11.636;2022-11-20T09:09:48;-0.20;62.50
9425;DHT22;17139;52.140;11.636;2022-11-20T09:12:17;-0.20;62.60
9425;DHT22;17139;52.140;11.636;2022-11-20T09:14:44;-0.10;62.80
9425;DHT22;17139;52.140;11.636;2022-11-20T09:17:11;0.60;60.10
9425;DHT22;17139;52.140;11.636;2022-11-20T09:19:40;0.50;60.60
9425;DHT22;17139;52.140;11.636;2022-11-20T09:22:07;0.30;61.20
9425;DHT22;17139;52.140;11.636;2022-11-20T09:24:34;0.30;61.50
9425;DHT22;17139;52.140;11.636;2022-11-20T09:27:03;0.30;61.80
9425;DHT22;17139;52.140;11.636;2022-11-20T09:29:31;0.80;60.10
9425;DHT22;17139;52.140;11.636;2022-11-20T09:31:59;0.70;60.40
9425;DHT22;17139;52.140;11.636;2022-11-20T09:34:26;0.50;61.10
9425;DHT22;17139;52.140;11.636;2022-11-20T09:36:53;0.40;61.60
9425;DHT22;17139;52.140;11.636;2022-11-20T09:39:20;0.50;62.10
9425;DHT22;17139;52.140;11.636;2022-11-20T09:42:02;0.40;62.20
9425;DHT22;17139;52.140;11.636;2022-11-20T09:45:21;0.40;62.20
9425;DHT22;17139;52.140;11.636;2022-11-20T09:47:59;0.40;62.20
9425;DHT22;17139;52.140;11.636;2022-11-20T09:50:42;0.40;62.40
9425;DHT22;17139;52.140;11.636;2022-11-20T09:53:20;0.40;62.60
9425;DHT22;17139;52.140;11.636;2022-11-20T09:55:48;0.40;62.60
9425;DHT22;17139;52.140;11.636;2022-11-20T09:58:24;0.80;61.50
9425;DHT22;17139;52.140;11.636;2022-11-20T10:00:57;1.00;61.00
9425;DHT22;17139;52.140;11.636;2022-11-20T10:03:36;0.80;61.20
9425;DHT22;17139;52.140;11.636;2022-11-20T10:06:05;0.70;62.50
9425;DHT22;17139;52.140;11.636;2022-11-20T10:08:41;0.70;62.20
9425;DHT22;17139;52.140;11.636;2022-11-20T10:11:15;0.60;62.40
9425;DHT22;17139;52.140;11.636;2022-11-20T10:13:50;0.60;62.40
9425;DHT22;17139;52.140;11.636;2022-11-20T10:16:27;0.60;62.40
9425;DHT22;17139;52.140;11.636;2022-11-20T10:19:05;0.60;62.40
9425;DHT22;17139;52.140;11.636;2022-11-20T10:21:41;0.70;62.50
9425;DHT22;17139;52.140;11.636;2022-11-20T10:27:27;1.30;60.70
9425;DHT22;17139;52.140;11.636;2022-11-20T10:30:02;1.20;61.30
9425;DHT22;17139;52.140;11.636;2022-11-20T10:32:35;1.20;61.70
9425;DHT22;17139;52.140;11.636;2022-11-20T10:35:07;1.10;61.80
9425;DHT22;17139;52.140;11.636;2022-11-20T10:37:43;1.20;61.60
9425;DHT22;17139;52.140;11.636;2022-11-20T10:40:20;1.20;61.60
9425;DHT22;17139;52.140;11.636;2022-11-20T10:42:52;1.20;61.90
9425;DHT22;17139;52.140;11.636;2022-11-20T10:45:34;1.90;59.40
9425;DHT22;17139;52.140;11.636;2022-11-20T10:48:10;2.00;59.20
9425;DHT22;17139;52.140;11.636;2022-11-20T10:50:48;1.70;59.90
9425;DHT22;17139;52.140;11.636;2022-11-20T10:53:27;1.80;59.80
9425;DHT22;17139;52.140;11.636;2022-11-20T10:56:03;1.70;60.50
9425;DHT22;17139;52.140;11.636;2022-11-20T10:58:38;2.30;58.70
9425;DHT22;17139;52.140;11.636;2022-11-20T11:01:14;2.00;59.50
9425;DHT22;17139;52.140;11.636;2022-11-20T11:03:43;1.80;60.40
9425;DHT22;17139;52.140;11.636;2022-11-20T11:06:17;1.60;60.80
9425;DHT22;17139;52.140;11.636;2022-11-20T11:08:47;1.60;61.30
9425;DHT22;17139;52.140;11.636;2022-11-20T11:11:21;1.50;61.50
9425;DHT22;17139;52.140;11.636;2022-11-20T11:13:49;1.90;59.70
9425;DHT22;17139;52.140;11.636;2022-11-20T11:16:20;1.80;60.20
9425;DHT22;17139;52.140;11.636;2022-11-20T11:18:49;1.70;60.90
9425;DHT22;17139;52.140;11.636;2022-11-20T11:21:22;1.70;61.30
9425;DHT22;17139;52.140;11.636;2022-11-20T11:23:58;1.70;61.50
9425;DHT22;17139;52.140;11.636;2022-11-20T11:26:26;1.70;61.70
9425;DHT22;17139;52.140;11.636;2022-11-20T11:28:55;1.60;61.90
9425;DHT22;17139;52.140;11.636;2022-11-20T11:31:23;1.60;62.10
9425;DHT22;17139;52.140;11.636;2022-11-20T11:33:52;1.60;62.30
9425;DHT22;17139;52.140;11.636;2022-11-20T11:36:30;1.60;62.50
9425;DHT22;17139;52.140;11.636;2022-11-20T11:38:57;1.50;62.60
9425;DHT22;17139;52.140;11.636;2022-11-20T11:41:29;1.70;62.40
9425;DHT22;17139;52.140;11.636;2022-11-20T11:44:02;2.00;61.70
9425;DHT22;17139;52.140;11.636;2022-11-20T11:46:53;2.30;60.50
9425;DHT22;17139;52.140;11.636;2022-11-20T11:49:22;2.30;61.00
9425;DHT22;17139;52.140;11.636;2022-11-20T11:52:09;2.20;61.40
9425;DHT22;17139;52.140;11.636;2022-11-20T11:54:42;2.20;61.60
9425;DHT22;17139;52.140;11.636;2022-11-20T11:57:15;2.20;61.90
9425;DHT22;17139;52.140;11.636;2022-11-20T11:59:57;2.20;61.90
9425;DHT22;17139;52.140;11.636;2022-11-20T12:02:36;2.10;62.60
9425;DHT22;17139;52.140;11.636;2022-11-20T12:05:16;2.00;62.30
9425;DHT22;17139;52.140;11.636;2022-11-20T12:07:47;1.90;62.50
9425;DHT22;17139;52.140;11.636;2022-11-20T12:10:21;2.50;60.30
9425;DHT22;17139;52.140;11.636;2022-11-20T12:12:52;2.40;60.80
9425;DHT22;17139;52.140;11.636;2022-11-20T12:15:26;2.50;60.60
9425;DHT22;17139;52.140;11.636;2022-11-20T12:17:53;2.40;61.00
9425;DHT22;17139;52.140;11.636;2022-11-20T12:20:24;2.30;61.50
9425;DHT22;17139;52.140;11.636;2022-11-20T12:22:56;2.40;61.90
9425;DHT22;17139;52.140;11.636;2022-11-20T12:25:29;2.90;59.90
9425;DHT22;17139;52.140;11.636;2022-11-20T12:28:15;2.90;60.40
9425;DHT22;17139;52.140;11.636;2022-11-20T12:30:50;2.90;60.90
9425;DHT22;17139;52.140;11.636;2022-11-20T12:33:33;2.80;61.10
9425;DHT22;17139;52.140;11.636;2022-11-20T12:36:11;2.90;60.70
9425;DHT22;17139;52.140;11.636;2022-11-20T12:39:19;3.30;59.10
9425;DHT22;17139;52.140;11.636;2022-11-20T12:42:20;3.40;59.00
9425;DHT22;17139;52.140;11.636;2022-11-20T12:45:29;3.10;60.00
9425;DHT22;17139;52.140;11.636;2022-11-20T12:48:34;2.80;61.00
9425;DHT22;17139;52.140;11.636;2022-11-20T12:51:25;2.70;61.70
9425;DHT22;17139;52.140;11.636;2022-11-20T12:54:20;2.60;62.00
9425;DHT22;17139;52.140;11.636;2022-11-20T12:56:57;2.60;62.30
9425;DHT22;17139;52.140;11.636;2022-11-20T12:59:38;2.60;62.30
9425;DHT22;17139;52.140;11.636;2022-11-20T13:02:22;2.50;62.20
9425;DHT22;17139;52.140;11.636;2022-11-20T13:05:03;2.60;62.10
9425;DHT22;17139;52.140;11.636;2022-11-20T13:07:35;2.50;62.00
9425;DHT22;17139;52.140;11.636;2022-11-20T13:10:04;2.50;62.20
9425;DHT22;17139;52.140;11.636;2022-11-20T13:12:36;2.40;62.40
9425;DHT22;17139;52.140;11.636;2022-11-20T13:15:14;2.40;62.50
9425;DHT22;17139;52.140;11.636;2022-11-20T13:17:47;2.30;62.40
9425;DHT22;17139;52.140;11.636;2022-11-20T13:20:18;2.20;62.60
9425;DHT22;17139;52.140;11.636;2022-11-20T13:22:48;2.00;62.90
9425;DHT22;17139;52.140;11.636;2022-11-20T13:25:23;2.00;63.30
9425;DHT22;17139;52.140;11.636;2022-11-20T13:27:51;1.90;63.50
9425;DHT22;17139;52.140;11.636;2022-11-20T13:30:19;1.90;63.60
9425;DHT22;17139;52.140;11.636;2022-11-20T13:32:51;1.90;63.20
9425;DHT22;17139;52.140;11.636;2022-11-20T13:35:30;2.00;62.80
9425;DHT22;17139;52.140;11.636;2022-11-20T13:38:06;2.30;61.60
9425;DHT22;17139;52.140;11.636;2022-11-20T13:40:35;2.10;62.00
9425;DHT22;17139;52.140;11.636;2022-11-20T13:43:15;2.10;62.10
9425;DHT22;17139;52.140;11.636;2022-11-20T13:45:42;2.10;62.30
9425;DHT22;17139;52.140;11.636;2022-11-20T13:48:22;2.00;62.70
9425;DHT22;17139;52.140;11.636;2022-11-20T13:51:07;1.90;62.90
9425;DHT22;17139;52.140;11.636;2022-11-20T13:54:06;1.80;63.00
9425;DHT22;17139;52.140;11.636;2022-11-20T13:56:47;1.70;63.40
9425;DHT22;17139;52.140;11.636;2022-11-20T13:59:32;2.00;61.80
9425;DHT22;17139;52.140;11.636;2022-11-20T14:02:10;2.50;59.80
9425;DHT22;17139;52.140;11.636;2022-11-20T14:04:43;2.90;58.50
9425;DHT22;17139;52.140;11.636;2022-11-20T14:07:12;2.50;59.70
9425;DHT22;17139;52.140;11.636;2022-11-20T14:09:50;2.00;61.10
9425;DHT22;17139;52.140;11.636;2022-11-20T14:12:19;1.70;62.00
9425;DHT22;17139;52.140;11.636;2022-11-20T14:14:49;2.20;61.10
9425;DHT22;17139;52.140;11.636;2022-11-20T14:17:19;2.00;61.20
9425;DHT22;17139;52.140;11.636;2022-11-20T14:19:48;1.80;62.10
9425;DHT22;17139;52.140;11.636;2022-11-20T14:22:19;2.10;61.40
9425;DHT22;17139;52.140;11.636;2022-11-20T14:24:48;2.00;61.60
9425;DHT22;17139;52.140;11.636;2022-11-20T14:27:18;2.00;61.40
9425;DHT22;17139;52.140;11.636;2022-11-20T14:29:48;1.90;61.60
9425;DHT22;17139;52.140;11.636;2022-11-20T14:32:17;1.60;62.20
9425;DHT22;17139;52.140;11.636;2022-11-20T14:34:48;1.50;62.80
9425;DHT22;17139;52.140;11.636;2022-11-20T14:37:20;1.30;63.00
9425;DHT22;17139;52.140;11.636;2022-11-20T14:39:52;1.20;63.00
9425;DHT22;17139;52.140;11.636;2022-11-20T14:42:20;1.20;63.40
9425;DHT22;17139;52.140;11.636;2022-11-20T14:44:48;1.10;63.50
9425;DHT22;17139;52.140;11.636;2022-11-20T14:47:19;1.10;63.60
9425;DHT22;17139;52.140;11.636;2022-11-20T14:49:49;1.80;61.70
9425;DHT22;17139;52.140;11.636;2022-11-20T14:52:19;1.70;61.60
9425;DHT22;17139;52.140;11.636;2022-11-20T14:54:48;1.50;62.00
9425;DHT22;17139;52.140;11.636;2022-11-20T14:57:36;1.40;62.70
9425;DHT22;17139;52.140;11.636;2022-11-20T15:00:17;1.30;63.00
9425;DHT22;17139;52.140;11.636;2022-11-20T15:02:46;1.20;63.20
9425;DHT22;17139;52.140;11.636;2022-11-20T15:05:14;1.10;63.50
9425;DHT22;17139;52.140;11.636;2022-11-20T15:07:43;1.00;63.60
9425;DHT22;17139;52.140;11.636;2022-11-20T15:10:18;0.90;63.70
9425;DHT22;17139;52.140;11.636;2022-11-20T15:12:49;0.80;63.90
9425;DHT22;17139;52.140;11.636;2022-11-20T15:15:20;0.70;64.10
9425;DHT22;17139;52.140;11.636;2022-11-20T15:17:48;0.60;64.20
9425;DHT22;17139;52.140;11.636;2022-11-20T15:20:17;0.50;64.40
9425;DHT22;17139;52.140;11.636;2022-11-20T15:22:44;0.40;64.60
9425;DHT22;17139;52.140;11.636;2022-11-20T15:25:13;0.30;64.80
9425;DHT22;17139;52.140;11.636;2022-11-20T15:27:40;0.20;65.50
9425;DHT22;17139;52.140;11.636;2022-11-20T15:30:19;0.20;64.80
9425;DHT22;17139;52.140;11.636;2022-11-20T15:32:47;0.20;64.80
9425;DHT22;17139;52.140;11.636;2022-11-20T15:35:15;0.10;64.80
9425;DHT22;17139;52.140;11.636;2022-11-20T15:37:42;0.10;65.00
9425;DHT22;17139;52.140;11.636;2022-11-20T15:40:10;0.00;65.00
9425;DHT22;17139;52.140;11.636;2022-11-20T15:42:37;0.20;64.80
9425;DHT22;17139;52.140;11.636;2022-11-20T15:45:26;0.20;64.40
9425;DHT22;17139;52.140;11.636;2022-11-20T15:47:54;0.10;64.30
9425;DHT22;17139;52.140;11.636;2022-11-20T15:50:22;0.10;64.40
9425;DHT22;17139;52.140;11.636;2022-11-20T15:52:52;0.10;64.60
9425;DHT22;17139;52.140;11.636;2022-11-20T15:55:19;0.00;64.60
9425;DHT22;17139;52.140;11.636;2022-11-20T15:57:46;-0.10;64.50
9425;DHT22;17139;52.140;11.636;2022-11-20T16:00:14;-0.20;64.50
9425;DHT22;17139;52.140;11.636;2022-11-20T16:02:43;-0.20;64.60
9425;DHT22;17139;52.140;11.636;2022-11-20T16:05:13;0.50;63.10